Time;durP1;ratioP1;P1;durP2;ratioP2;P2;SDS_P1;SDS_P2;PMS_P1;PMS_P2;Temp;Humidity;BMP_temperature;BMP_pressure;BME280_temperature;BME280_humidity;BME280_pressure;Samples;Min_cycle;Max_cycle;Signal;HPM_P1;HPM_P2
2022/09/15 00:01:51;;;;;;;8.35;2.55;;;;;;;14.34;68.33;99721.45;1741633;80;21055;-86
2022/09/15 00:04:18;;;;;;;7.10;2.75;;;;;;;14.35;68.40;99719.67;1741927;80;21580;-87
2022/09/15 00:06:45;;;;;;;7.03;2.50;;;;;;;14.33;68.40;99721.45;1741856;80;22579;-87
2022/09/15 00:09:11;;;;;;;5.30;2.37;;;;;;;14.33;68.50;99714.84;1742129;80;21521;-87
2022/09/15 00:11:38;;;;;;;6.60;2.40;;;;;;;14.33;68.48;99711.73;1714536;81;21080;-87
2022/09/15 00:14:06;;;;;;;7.65;2.45;;;;;;;14.31;68.52;99709.55;1709540;82;21067;-87
2022/09/15 00:16:32;;;;;;;7.22;2.95;;;;;;;14.33;68.56;99708.22;1709413;82;21079;-87
2022/09/15 00:18:59;;;;;;;9.53;2.70;;;;;;;14.34;68.60;99712.60;1709549;82;21890;-87
2022/09/15 00:21:30;;;;;;;6.70;2.70;;;;;;;14.35;68.62;99713.05;1709465;82;21059;-87
2022/09/15 00:23:58;;;;;;;12.70;3.12;;;;;;;14.35;68.60;99715.25;1709705;82;21156;-87
2022/09/15 00:26:27;;;;;;;6.33;2.42;;;;;;;14.35;68.67;99709.95;1681282;82;21055;-87
2022/09/15 00:28:55;;;;;;;8.03;2.87;;;;;;;14.37;68.70;99711.27;1709369;82;21076;-87
2022/09/15 00:31:22;;;;;;;6.10;2.15;;;;;;;14.39;68.71;99710.81;1709339;82;22629;-87
2022/09/15 00:33:50;;;;;;;6.17;2.33;;;;;;;14.36;68.73;99711.72;1709575;82;21023;-87
2022/09/15 00:36:17;;;;;;;9.23;3.00;;;;;;;14.35;68.82;99703.33;1709551;82;21095;-87
2022/09/15 00:38:44;;;;;;;5.87;2.30;;;;;;;14.37;68.86;99707.30;1720904;79;21334;-86
2022/09/15 00:41:13;;;;;;;5.72;2.55;;;;;;;14.37;68.86;99704.20;1751559;79;21115;-87
2022/09/15 00:43:48;;;;;;;5.62;2.50;;;;;;;14.39;68.90;99696.25;1754047;79;21829;-87
2022/09/15 00:46:18;;;;;;;13.68;3.17;;;;;;;14.39;68.91;99694.92;1758212;80;21025;-87
2022/09/15 00:48:59;;;;;;;8.73;2.42;;;;;;;14.38;68.98;99688.77;1759368;79;21493;-86
2022/09/15 00:51:51;;;;;;;10.35;2.70;;;;;;;14.39;68.95;99690.50;1751465;79;21107;-87
2022/09/15 00:54:21;;;;;;;7.10;2.52;;;;;;;14.38;69.05;99688.77;1737400;79;21056;-86
2022/09/15 00:56:50;;;;;;;9.15;2.62;;;;;;;14.37;69.10;99690.96;1750662;79;21835;-87
2022/09/15 00:59:19;;;;;;;8.18;2.80;;;;;;;14.35;69.13;99689.23;1751494;79;20980;-87
2022/09/15 01:01:46;;;;;;;5.58;2.37;;;;;;;14.35;69.18;99686.13;1754975;79;21633;-87
2022/09/15 01:04:13;;;;;;;10.18;2.90;;;;;;;14.32;69.28;99676.00;1749639;79;21510;-87
2022/09/15 01:06:48;;;;;;;9.55;2.70;;;;;;;14.34;69.29;99682.16;1747265;80;21062;-87
2022/09/15 01:09:26;;;;;;;7.33;2.75;;;;;;;14.31;69.26;99683.53;1736988;80;21755;-87
2022/09/15 01:11:52;;;;;;;8.03;2.47;;;;;;;14.26;69.24;99674.73;1751562;80;21077;-87
2022/09/15 01:14:19;;;;;;;7.33;2.45;;;;;;;14.17;69.28;99672.59;1752575;79;21089;-87
2022/09/15 01:17:14;;;;;;;9.65;3.15;;;;;;;14.12;69.32;99673.06;1750818;80;21602;-87
2022/09/15 01:20:26;;;;;;;8.38;2.80;;;;;;;14.04;69.34;99668.28;1757377;79;21077;-86
2022/09/15 01:23:27;;;;;;;6.92;2.42;;;;;;;13.94;69.41;99666.56;1751645;80;22606;-86
2022/09/15 01:26:11;;;;;;;7.10;2.50;;;;;;;13.80;69.45;99664.02;1717969;81;22370;-86
2022/09/15 01:29:07;;;;;;;;;;;;;;;13.66;69.56;99660.55;1752533;79;21060;-85
2022/09/15 01:33:02;;;;;;;6.20;2.62;;;;;;;13.53;69.78;99657.08;1749749;79;20431;-85
2022/09/15 01:34:15;;;;;;;6.00;2.25;;;;;;;13.39;69.89;99656.70;1749859;79;21058;-85
2022/09/15 01:36:51;;;;;;;7.67;2.50;;;;;;;13.29;70.09;99648.77;1751118;79;22548;-85
2022/09/15 01:39:26;;;;;;;7.55;2.40;;;;;;;13.21;70.33;99642.20;1749298;79;20973;-86
2022/09/15 01:41:56;;;;;;;8.50;2.50;;;;;;;13.14;70.52;99645.32;1756687;80;21111;-85
2022/09/15 01:44:30;;;;;;;5.08;2.35;;;;;;;13.10;70.69;99639.61;1754794;79;21553;-86
2022/09/15 01:46:59;;;;;;;7.87;2.67;;;;;;;13.08;70.83;99645.31;1708259;79;21064;-85
2022/09/15 01:49:29;;;;;;;9.28;2.70;;;;;;;13.07;70.99;99651.95;1745505;80;21899;-86
2022/09/15 01:51:56;;;;;;;6.62;2.60;;;;;;;13.08;71.15;99648.41;1751279;80;21120;-86
2022/09/15 01:54:36;;;;;;;8.50;2.83;;;;;;;13.12;71.31;99652.80;1758030;80;21092;-86
2022/09/15 01:57:03;;;;;;;7.58;2.20;;;;;;;13.18;71.42;99650.16;1755463;80;21053;-86
2022/09/15 01:59:30;;;;;;;4.80;2.52;;;;;;;13.23;71.49;99653.64;1750346;80;21113;-85
2022/09/15 02:02:08;;;;;;;7.83;2.62;;;;;;;13.28;71.51;99649.23;1757241;80;21263;-85
2022/09/15 02:04:49;;;;;;;9.65;3.35;;;;;;;13.34;71.52;99646.58;1758067;80;21100;-85
2022/09/15 02:07:30;;;;;;;8.53;2.60;;;;;;;13.37;71.47;99642.62;1756485;80;21061;-85
2022/09/15 02:10:10;;;;;;;9.00;2.90;;;;;;;13.39;71.37;99642.62;1737777;80;21509;-86
2022/09/15 02:12:58;;;;;;;8.05;2.52;;;;;;;13.36;71.32;99639.97;1757901;80;21575;-86
2022/09/15 02:15:33;;;;;;;5.65;2.72;;;;;;;13.30;71.26;99638.23;1757876;80;21758;-85
2022/09/15 02:18:01;;;;;;;9.33;3.15;;;;;;;13.21;71.27;99635.17;1756412;80;21105;-85
2022/09/15 02:20:53;;;;;;;9.93;2.62;;;;;;;13.14;71.29;99632.56;1747057;81;22254;-85
2022/09/15 02:23:25;;;;;;;8.53;2.50;;;;;;;13.06;71.32;99635.65;1756833;80;21112;-85
2022/09/15 02:26:03;;;;;;;8.55;2.47;;;;;;;12.93;71.44;99632.16;1758144;80;21061;-86
2022/09/15 02:28:30;;;;;;;8.65;3.10;;;;;;;12.83;71.52;99635.27;1757423;80;22021;-85
2022/09/15 02:30:57;;;;;;;6.08;2.35;;;;;;;12.72;71.60;99629.13;1722203;81;21077;-85
2022/09/15 02:33:27;;;;;;;7.97;2.83;;;;;;;12.62;71.74;99628.27;1756708;80;20989;-86
2022/09/15 02:35:54;;;;;;;8.53;4.03;;;;;;;12.53;71.88;99632.23;1752564;80;21828;-86
2022/09/15 02:38:21;;;;;;;12.03;4.05;;;;;;;12.45;72.02;99625.65;1755865;80;22072;-85
2022/09/15 02:40:48;;;;;;;6.55;2.83;;;;;;;12.38;72.21;99631.80;1735026;81;22603;-85
2022/09/15 02:43:16;;;;;;;9.90;2.70;;;;;;;12.31;72.35;99629.59;1697235;81;21765;-87
2022/09/15 02:45:43;;;;;;;8.33;2.67;;;;;;;12.23;72.48;99624.31;1731376;81;21037;-87
2022/09/15 02:48:10;;;;;;;14.20;3.65;;;;;;;12.18;72.58;99623.88;1724775;81;22381;-87
2022/09/15 02:50:37;;;;;;;5.83;2.60;;;;;;;12.13;72.64;99623.02;1714024;82;22117;-87
2022/09/15 02:53:04;;;;;;;12.40;3.02;;;;;;;12.06;72.80;99616.39;1715565;82;21735;-86
2022/09/15 02:55:34;;;;;;;8.05;2.77;;;;;;;12.03;72.89;99615.52;1710231;82;21058;-84
2022/09/15 02:57:59;;;;;;;7.10;2.72;;;;;;;11.99;73.08;99610.70;1709394;81;21562;-85
2022/09/15 03:00:27;;;;;;;7.17;2.90;;;;;;;11.96;73.18;99609.38;1729627;81;21112;-86
2022/09/15 03:02:54;;;;;;;10.23;2.77;;;;;;;11.93;73.26;99612.44;1734792;82;21084;-85
2022/09/15 03:05:26;;;;;;;6.97;2.42;;;;;;;11.90;73.32;99611.11;1731406;81;22523;-86
2022/09/15 03:07:53;;;;;;;10.90;3.10;;;;;;;11.86;73.45;99613.73;1720634;81;21710;-86
2022/09/15 03:10:20;;;;;;;7.60;3.00;;;;;;;11.84;73.59;99613.27;1746115;81;21448;-89
2022/09/15 03:12:49;;;;;;;9.88;3.27;;;;;;;11.82;73.64;99616.34;1705788;82;21058;-86
2022/09/15 03:15:18;;;;;;;11.05;3.27;;;;;;;11.79;73.79;99611.95;1720808;82;21037;-86
2022/09/15 03:17:45;;;;;;;9.83;3.45;;;;;;;11.77;73.88;99612.80;1720331;82;21793;-87
2022/09/15 03:20:17;;;;;;;10.85;3.42;;;;;;;11.74;73.92;99608.42;1720801;82;21033;-87
2022/09/15 03:22:43;;;;;;;6.47;2.72;;;;;;;11.72;74.02;99610.17;1720331;82;21058;-87
2022/09/15 03:25:10;;;;;;;5.60;2.40;;;;;;;11.72;74.18;99606.22;1734333;81;21144;-86
2022/09/15 03:27:37;;;;;;;8.95;3.10;;;;;;;11.69;74.25;99604.88;1731698;81;21055;-86
2022/09/15 03:30:05;;;;;;;8.93;2.77;;;;;;;11.69;74.32;99608.84;1715779;82;21795;-86
2022/09/15 03:32:32;;;;;;;7.67;3.15;;;;;;;11.67;74.44;99593.46;1731715;81;21048;-87
2022/09/15 03:34:58;;;;;;;8.43;3.00;;;;;;;11.65;74.46;99586.86;1721110;81;21068;-87
2022/09/15 03:37:25;;;;;;;7.65;2.72;;;;;;;11.64;74.49;99582.94;1721203;82;21477;-86
2022/09/15 03:39:52;;;;;;;11.40;2.77;;;;;;;11.62;74.57;99588.20;1714822;79;21127;-86
2022/09/15 03:42:19;;;;;;;7.72;2.25;;;;;;;11.61;74.63;99589.05;1763487;79;22275;-87
2022/09/15 03:44:46;;;;;;;8.43;2.83;;;;;;;11.60;74.68;99596.54;1763422;79;21717;-87
2022/09/15 03:47:13;;;;;;;8.83;2.87;;;;;;;11.55;74.75;99578.96;1761722;79;21041;-87
2022/09/15 03:49:42;;;;;;;8.93;2.83;;;;;;;11.57;74.84;99583.34;1733659;81;21584;-87
2022/09/15 03:52:08;;;;;;;8.15;2.90;;;;;;;11.58;75.01;99579.84;1764896;79;21061;-87
2022/09/15 03:54:38;;;;;;;6.75;2.37;;;;;;;11.64;75.17;99580.30;1761690;79;21753;-87
2022/09/15 03:57:04;;;;;;;6.80;2.50;;;;;;;11.73;75.30;99580.31;1763388;79;21056;-87
2022/09/15 03:59:31;;;;;;;8.30;2.58;;;;;;;11.81;75.41;99569.77;1763344;79;21634;-84
2022/09/15 04:01:57;;;;;;;9.48;2.87;;;;;;;11.92;75.46;99569.80;1764484;79;21052;-83
2022/09/15 04:04:24;;;;;;;6.95;2.70;;;;;;;12.01;75.52;99565.84;1763577;79;21164;-83
2022/09/15 04:06:52;;;;;;;6.87;2.40;;;;;;;12.12;75.46;99572.00;1763297;79;21945;-83
2022/09/15 04:09:19;;;;;;;8.78;2.98;;;;;;;12.21;75.45;99577.27;1765120;79;21076;-83
2022/09/15 04:11:46;;;;;;;7.85;2.72;;;;;;;12.29;75.40;99579.03;1770982;79;21048;-83
2022/09/15 04:14:13;;;;;;;8.55;2.67;;;;;;;12.35;75.36;99570.69;1763071;79;21140;-83
2022/09/15 04:16:39;;;;;;;9.20;2.60;;;;;;;12.43;75.32;99572.86;1771927;79;21107;-83
2022/09/15 04:19:06;;;;;;;6.15;2.50;;;;;;;12.51;75.28;99569.34;1761190;79;21554;-84
2022/09/15 04:21:33;;;;;;;7.62;2.70;;;;;;;12.57;75.24;99564.91;1763309;79;21155;-84
2022/09/15 04:24:03;;;;;;;6.97;2.75;;;;;;;12.63;75.19;99563.59;1763403;79;21070;-84
2022/09/15 04:26:35;;;;;;;7.12;2.70;;;;;;;12.69;75.10;99567.98;1760618;79;21477;-83
2022/09/15 04:29:02;;;;;;;6.62;2.55;;;;;;;12.72;75.00;99563.12;1760183;80;21092;-90
2022/09/15 04:31:29;;;;;;;8.28;2.45;;;;;;;12.73;74.93;99560.48;1743035;81;21794;-89
2022/09/15 04:33:56;;;;;;;5.67;2.40;;;;;;;12.76;74.92;99560.48;1764278;79;21256;-84
2022/09/15 04:36:24;;;;;;;7.97;2.40;;;;;;;12.83;75.05;99558.69;1764334;79;21386;-84
2022/09/15 04:38:51;;;;;;;10.78;3.12;;;;;;;12.88;74.87;99563.52;1763879;79;21374;-83
2022/09/15 04:41:18;;;;;;;8.43;2.47;;;;;;;12.89;74.75;99566.58;1761338;79;21045;-83
2022/09/15 04:43:45;;;;;;;5.83;2.50;;;;;;;12.90;74.69;99567.03;1760502;79;22494;-84
2022/09/15 04:46:11;;;;;;;7.55;2.30;;;;;;;12.90;74.64;99566.16;1757850;79;20989;-84
2022/09/15 04:48:38;;;;;;;11.43;2.37;;;;;;;12.90;74.61;99564.84;1758277;79;21045;-84
2022/09/15 04:51:07;;;;;;;5.80;2.50;;;;;;;12.90;74.61;99567.48;1760666;79;21058;-84
2022/09/15 04:53:34;;;;;;;9.35;2.47;;;;;;;12.91;74.65;99558.20;1761047;79;21084;-84
2022/09/15 04:56:10;;;;;;;6.70;2.47;;;;;;;12.95;74.64;99556.43;1753391;79;22397;-84
2022/09/15 04:58:46;;;;;;;6.87;2.55;;;;;;;12.98;74.64;99552.47;1757736;79;21011;-87
2022/09/15 05:01:18;;;;;;;5.85;2.62;;;;;;;13.03;74.67;99547.60;1753202;79;21080;-87
2022/09/15 05:03:45;;;;;;;7.28;2.60;;;;;;;13.13;74.77;99543.15;1769906;79;21120;-84
2022/09/15 05:06:15;;;;;;;6.72;3.17;;;;;;;13.37;74.91;99540.86;1757604;79;21089;-87
2022/09/15 05:08:42;;;;;;;6.95;2.35;;;;;;;13.67;74.87;99549.48;1744678;79;22574;-86
2022/09/15 05:11:12;;;;;;;6.60;2.47;;;;;;;13.94;74.62;99546.20;1760392;79;20991;-87
2022/09/15 05:13:39;;;;;;;6.65;2.75;;;;;;;14.19;74.38;99547.75;1730126;80;21440;-86
2022/09/15 05:16:10;;;;;;;6.17;2.37;;;;;;;14.46;74.06;99543.53;1762392;79;21478;-84
2022/09/15 05:18:38;;;;;;;6.83;2.02;;;;;;;14.69;73.67;99536.23;1753247;79;21140;-84
2022/09/15 05:21:05;;;;;;;8.50;2.70;;;;;;;14.86;73.40;99529.41;1757566;79;21779;-84
2022/09/15 05:23:33;;;;;;;7.28;2.35;;;;;;;15.01;73.15;99538.08;1758100;80;21059;-84
2022/09/15 05:26:01;;;;;;;5.97;2.42;;;;;;;15.12;72.81;99526.89;1729092;81;21125;-84
2022/09/15 05:28:28;;;;;;;9.38;2.60;;;;;;;15.23;72.58;99533.39;1760353;79;21061;-84
2022/09/15 05:30:54;;;;;;;5.78;2.00;;;;;;;15.30;72.30;99532.41;1760040;79;21064;-84
2022/09/15 05:33:22;;;;;;;5.47;2.50;;;;;;;15.33;72.00;99537.22;1757403;80;21706;-84
2022/09/15 05:35:57;;;;;;;7.28;2.75;;;;;;;15.34;71.81;99537.63;1728344;81;21417;-84
2022/09/15 05:38:24;;;;;;;8.13;2.52;;;;;;;15.32;71.55;99531.48;1760385;79;21060;-84
2022/09/15 05:40:51;;;;;;;8.90;2.55;;;;;;;15.29;71.50;99535.48;1728117;81;21665;-84
2022/09/15 05:43:18;;;;;;;5.33;2.50;;;;;;;15.29;71.42;99538.59;1760351;79;21077;-84
2022/09/15 05:45:46;;;;;;;5.92;2.50;;;;;;;15.27;71.26;99535.95;1758216;80;22455;-84
2022/09/15 05:48:13;;;;;;;7.60;2.37;;;;;;;15.20;71.18;99535.61;1717574;81;21084;-84
2022/09/15 05:50:41;;;;;;;8.45;2.37;;;;;;;15.27;71.45;99525.81;1745625;80;21062;-84
2022/09/15 05:53:09;;;;;;;5.70;2.00;;;;;;;15.43;71.47;99532.66;1717372;80;21502;-84
2022/09/15 05:55:39;;;;;;;8.53;4.42;;;;;;;15.60;71.46;99515.59;1760379;79;21105;-84
2022/09/15 05:58:06;;;;;;;9.48;2.20;;;;;;;15.78;71.26;99506.06;1756783;79;21791;-84
2022/09/15 06:00:33;;;;;;;8.18;2.60;;;;;;;15.91;71.01;99501.44;1730613;80;21038;-84
2022/09/15 06:03:00;;;;;;;10.75;2.62;;;;;;;15.98;70.73;99507.53;1721895;81;21530;-84
2022/09/15 06:05:27;;;;;;;8.80;2.75;;;;;;;15.98;70.46;99501.76;1716093;81;21080;-83
2022/09/15 06:07:55;;;;;;;4.97;2.50;;;;;;;15.99;70.33;99506.61;1756978;80;21072;-83
2022/09/15 06:10:23;;;;;;;4.55;2.50;;;;;;;16.02;70.29;99502.12;1766096;79;21683;-83
2022/09/15 06:12:52;;;;;;;4.15;2.35;;;;;;;16.02;70.12;99498.61;1756310;80;22292;-84
2022/09/15 06:15:20;;;;;;;4.95;2.12;;;;;;;16.02;70.09;99502.59;1759763;79;21069;-84
2022/09/15 06:17:47;;;;;;;7.00;2.47;;;;;;;16.01;69.98;99503.47;1752027;79;21616;-83
2022/09/15 06:20:14;;;;;;;11.53;2.30;;;;;;;16.01;69.88;99497.73;1751034;80;21057;-83
2022/09/15 06:22:40;;;;;;;3.80;2.10;;;;;;;16.04;69.86;99495.02;1753961;79;22456;-82
2022/09/15 06:25:08;;;;;;;6.70;2.52;;;;;;;16.06;69.79;99491.01;1750869;79;21004;-83
2022/09/15 06:27:34;;;;;;;4.37;2.70;;;;;;;16.10;69.70;99495.35;1754923;80;21576;-83
2022/09/15 06:30:02;;;;;;;5.47;2.60;;;;;;;16.16;69.61;99498.34;1751857;79;21008;-83
2022/09/15 06:32:29;;;;;;;8.23;2.65;;;;;;;16.22;69.57;99503.11;1750422;79;21048;-82
2022/09/15 06:34:56;;;;;;;6.15;2.45;;;;;;;16.26;69.39;99499.95;1749712;79;21734;-83
2022/09/15 06:37:22;;;;;;;7.33;2.40;;;;;;;16.33;69.33;99501.59;1751709;80;21017;-82
2022/09/15 06:39:49;;;;;;;4.87;2.40;;;;;;;16.41;69.26;99496.14;1765819;79;22379;-83
2022/09/15 06:42:16;;;;;;;7.10;2.33;;;;;;;16.46;69.05;99495.58;1750171;80;21701;-83
2022/09/15 06:44:43;;;;;;;4.60;2.12;;;;;;;16.51;68.94;99497.70;1752943;79;21060;-84
2022/09/15 06:47:12;;;;;;;4.92;2.40;;;;;;;16.59;68.88;99501.53;1755774;79;21699;-84
2022/09/15 06:49:39;;;;;;;5.65;2.12;;;;;;;16.67;68.87;99497.83;1717963;81;21147;-84
2022/09/15 06:52:05;;;;;;;5.92;1.92;;;;;;;16.74;68.60;99501.69;1735626;80;21069;-84
2022/09/15 06:54:32;;;;;;;3.58;1.98;;;;;;;16.77;68.41;99498.51;1736047;80;21583;-84
2022/09/15 06:56:59;;;;;;;3.70;2.00;;;;;;;16.83;68.30;99501.06;1755342;80;21057;-84
2022/09/15 06:59:26;;;;;;;5.03;1.70;;;;;;;16.92;68.17;99505.79;1791691;78;21720;-84
2022/09/15 07:01:54;;;;;;;4.67;1.75;;;;;;;16.99;67.91;99502.10;1753571;79;21023;-84
2022/09/15 07:04:21;;;;;;;4.50;1.98;;;;;;;17.02;67.77;99508.66;1705262;79;21548;-84
2022/09/15 07:06:49;;;;;;;5.10;1.82;;;;;;;17.03;67.59;99503.78;1747126;80;21340;-84
2022/09/15 07:09:16;;;;;;;4.50;1.55;;;;;;;17.09;67.51;99499.65;1736657;80;21605;-84
2022/09/15 07:11:42;;;;;;;4.60;1.75;;;;;;;17.24;67.50;99501.97;1750907;80;22779;-84
2022/09/15 07:14:11;;;;;;;4.47;1.77;;;;;;;17.40;67.27;99501.19;1753242;79;21530;-84
2022/09/15 07:16:38;;;;;;;5.85;1.85;;;;;;;17.47;66.95;99497.91;1757639;80;21581;-84
2022/09/15 07:19:04;;;;;;;5.47;1.85;;;;;;;17.54;66.74;99498.19;1766084;79;21056;-84
2022/09/15 07:21:32;;;;;;;3.50;1.90;;;;;;;17.62;66.64;99506.85;1766343;79;21047;-85
2022/09/15 07:23:59;;;;;;;7.08;1.82;;;;;;;17.78;66.47;99514.50;1738314;81;21781;-85
2022/09/15 07:26:28;;;;;;;3.58;1.67;;;;;;;17.97;66.27;99515.81;1756158;80;21662;-84
2022/09/15 07:28:57;;;;;;;5.05;1.77;;;;;;;18.12;66.18;99519.01;1759882;79;21061;-85
2022/09/15 07:31:25;;;;;;;4.90;2.25;;;;;;;18.31;66.06;99512.74;1752675;79;21134;-85
2022/09/15 07:33:52;;;;;;;2.85;1.60;;;;;;;18.42;65.47;99518.66;1754019;79;21109;-85
2022/09/15 07:36:19;;;;;;;4.72;1.85;;;;;;;18.45;65.28;99518.12;1752969;79;21756;-85
2022/09/15 07:38:47;;;;;;;4.78;2.30;;;;;;;18.46;64.81;99521.19;1757922;80;21061;-85
2022/09/15 07:41:19;;;;;;;11.65;2.27;;;;;;;18.53;64.75;99527.70;1761916;79;21370;-84
2022/09/15 07:43:47;;;;;;;7.40;2.45;;;;;;;18.48;64.50;99521.61;1743536;80;21012;-85
2022/09/15 07:46:15;;;;;;;4.42;1.85;;;;;;;18.38;64.36;99517.00;1733714;81;21076;-85
2022/09/15 07:48:46;;;;;;;6.30;2.30;;;;;;;18.27;64.14;99514.61;1742338;80;21702;-85
2022/09/15 07:51:13;;;;;;;3.98;1.80;;;;;;;18.06;63.99;99520.04;1732962;80;20997;-85
2022/09/15 07:53:41;;;;;;;7.90;2.98;;;;;;;17.85;63.91;99515.67;1744054;80;20885;-85
2022/09/15 07:56:08;;;;;;;5.90;2.08;;;;;;;17.71;64.08;99520.87;1743890;80;20966;-85
2022/09/15 07:58:35;;;;;;;6.35;2.20;;;;;;;17.60;64.11;99527.77;1744173;80;21028;-84
2022/09/15 08:01:06;;;;;;;3.65;1.82;;;;;;;17.46;64.23;99526.30;1743864;80;21740;-84
2022/09/15 08:03:33;;;;;;;3.72;1.67;;;;;;;17.41;64.37;99528.65;1720611;82;20975;-85
2022/09/15 08:06:01;;;;;;;6.50;2.60;;;;;;;17.41;64.44;99529.52;1748110;80;21315;-84
2022/09/15 08:08:28;;;;;;;4.50;2.15;;;;;;;17.55;64.50;99533.64;1748960;80;20977;-85
2022/09/15 08:10:55;;;;;;;5.12;1.82;;;;;;;17.79;64.59;99529.53;1744185;80;21033;-85
2022/09/15 08:13:23;;;;;;;3.87;1.60;;;;;;;18.10;64.37;99528.83;1744105;80;21747;-85
2022/09/15 08:15:50;;;;;;;3.75;1.60;;;;;;;18.34;64.06;99535.28;1742817;80;21076;-84
2022/09/15 08:18:17;;;;;;;3.85;1.70;;;;;;;18.47;63.60;99536.73;1742516;80;21545;-85
2022/09/15 08:20:44;;;;;;;3.08;1.75;;;;;;;18.58;63.10;99531.09;1742252;80;21080;-85
2022/09/15 08:23:11;;;;;;;5.35;1.62;;;;;;;18.65;62.71;99529.55;1742429;80;21117;-85
2022/09/15 08:25:38;;;;;;;4.17;1.55;;;;;;;18.70;62.53;99529.90;1742626;80;21786;-84
2022/09/15 08:28:05;;;;;;;5.42;2.30;;;;;;;18.79;62.34;99534.52;1742790;80;21036;-85
2022/09/15 08:30:32;;;;;;;3.75;2.05;;;;;;;18.92;62.20;99528.84;1734415;81;21397;-83
2022/09/15 08:32:59;;;;;;;3.45;1.42;;;;;;;18.99;61.96;99530.42;1742646;80;21032;-84
2022/09/15 08:35:25;;;;;;;2.60;1.65;;;;;;;19.04;61.66;99523.17;1712022;81;21041;-84
2022/09/15 08:37:54;;;;;;;4.45;1.92;;;;;;;19.03;61.37;99525.41;1710928;82;21827;-84
2022/09/15 09:38:01;;;;;;;3.75;1.70;;;;;;;20.35;57.13;99507.00;1768851;78;21060;-84
2022/09/15 09:40:30;;;;;;;6.17;1.75;;;;;;;20.56;56.77;99499.54;1797861;79;21071;-83
2022/09/15 09:42:57;;;;;;;2.17;1.20;;;;;;;20.56;56.77;99499.54;1798366;79;21050;-84
2022/09/15 09:45:23;;;;;;;5.42;1.80;;;;;;;20.62;56.22;99478.89;1780610;79;21299;-84
2022/09/15 09:47:50;;;;;;;2.65;1.50;;;;;;;20.62;56.22;99478.89;1798328;78;21710;-84
2022/09/15 09:50:43;;;;;;;5.25;2.20;;;;;;;20.83;56.00;99498.62;1787419;79;21038;-84
2022/09/15 09:53:33;;;;;;;4.92;1.27;;;;;;;20.78;55.93;99471.59;1798139;78;21054;-84
2022/09/15 09:56:25;;;;;;;4.20;1.92;;;;;;;21.09;55.71;99498.97;1772702;79;21511;-84
2022/09/15 09:58:52;;;;;;;6.85;2.33;;;;;;;21.31;55.55;99497.69;1771178;80;21673;-85
2022/09/15 10:01:23;;;;;;;5.67;1.40;;;;;;;21.44;54.51;99493.62;1709750;80;21751;-83
2022/09/15 10:04:12;;;;;;;4.37;1.85;;;;;;;21.44;54.51;99493.62;1782259;80;21057;-84
2022/09/15 10:06:39;;;;;;;3.60;2.05;;;;;;;21.27;54.35;99478.67;1626332;86;21156;-84
2022/09/15 10:09:18;;;;;;;3.87;1.87;;;;;;;21.34;54.08;99495.77;1653226;84;21094;-83
2022/09/15 10:11:50;;;;;;;2.80;1.10;;;;;;;21.32;53.97;99492.28;1640732;84;21201;-84
2022/09/15 10:14:26;;;;;;;5.95;1.30;;;;;;;21.37;53.82;99501.45;1653062;84;21555;-84
2022/09/15 10:17:14;;;;;;;;;;;;;;;21.36;53.66;99499.72;1655892;84;21128;-84
2022/09/15 10:19:53;;;;;;;4.62;1.42;;;;;;;21.28;53.10;99487.09;1653533;84;20220;-84
2022/09/15 10:22:32;;;;;;;4.97;1.30;;;;;;;21.13;53.28;99493.91;1653479;84;21117;-84
2022/09/15 10:25:00;;;;;;;2.35;1.17;;;;;;;21.13;53.32;99489.45;1653656;84;21174;-83
2022/09/15 10:27:34;;;;;;;10.58;7.33;;;;;;;21.28;53.41;99488.42;1631399;86;21726;-84
2022/09/15 10:30:15;;;;;;;;;;;;;;;21.47;53.11;99483.24;1655410;84;21133;-84
2022/09/15 10:32:42;;;;;;;2.75;1.47;;;;;;;21.52;52.49;99486.14;1654234;84;20453;-84
2022/09/15 10:35:15;;;;;;;5.33;1.22;;;;;;;21.31;52.15;99485.16;1653834;84;21070;-84
2022/09/15 10:38:05;;;;;;;2.62;1.10;;;;;;;21.14;51.94;99481.81;1707074;80;21055;-85
2022/09/15 10:40:55;;;;;;;3.65;1.40;;;;;;;20.95;51.98;99474.96;1779708;79;21800;-85
2022/09/15 10:43:42;;;;;;;4.60;1.20;;;;;;;20.84;52.10;99479.84;1789760;79;21035;-84
2022/09/15 10:46:37;;;;;;;1.92;1.12;;;;;;;20.77;52.01;99476.98;1768907;79;20959;-84
2022/09/15 10:49:36;;;;;;;4.00;1.07;;;;;;;20.63;51.77;99483.30;1789989;79;21511;-82
2022/09/15 10:52:11;;;;;;;4.33;1.20;;;;;;;20.46;51.93;99458.48;1789869;79;20944;-85
2022/09/15 10:54:55;;;;;;;5.95;1.30;;;;;;;20.34;51.80;99461.14;1763955;79;21720;-84
2022/09/15 10:58:13;;;;;;;1.85;1.22;;;;;;;20.62;51.73;99471.73;1764830;80;22170;-84
2022/09/15 11:01:31;;;;;;;1.30;1.02;;;;;;;20.62;51.73;99471.73;1768730;79;21054;-85
2022/09/15 11:04:21;;;;;;;2.10;1.25;;;;;;;20.75;51.20;99470.83;1766590;80;21101;-83
2022/09/15 11:06:59;;;;;;;4.40;2.72;;;;;;;20.61;50.57;99459.76;1776485;80;22078;-84
2022/09/15 11:09:45;;;;;;;2.72;1.25;;;;;;;20.57;50.43;99450.50;1787297;79;22563;-84
2022/09/15 11:12:41;;;;;;;3.12;1.57;;;;;;;20.57;50.43;99450.50;1780934;80;21126;-83
2022/09/15 11:15:48;;;;;;;5.42;1.60;;;;;;;20.84;50.55;99473.63;1783115;79;21089;-83
2022/09/15 11:18:32;;;;;;;2.05;1.05;;;;;;;20.84;50.55;99473.63;1788687;80;21098;-83
2022/09/15 11:21:25;;;;;;;3.25;1.32;;;;;;;20.83;50.19;99473.21;1787797;79;21090;-83
2022/09/15 11:23:57;;;;;;;1.75;1.10;;;;;;;20.69;49.95;99476.41;1772961;80;21687;-84
2022/09/15 11:26:38;;;;;;;5.12;1.10;;;;;;;20.41;49.95;99483.19;1788260;79;21035;-84
2022/09/15 11:29:41;;;;;;;1.95;0.93;;;;;;;20.41;49.95;99483.19;1790133;80;20951;-84
2022/09/15 11:32:15;;;;;;;5.87;0.82;;;;;;;20.41;49.73;99475.17;1788200;79;21357;-84
2022/09/15 11:34:49;;;;;;;2.83;0.93;;;;;;;20.38;49.20;99463.67;1793520;80;20893;-83
2022/09/15 11:37:20;;;;;;;4.85;1.10;;;;;;;20.56;48.78;99510.70;1787249;80;21775;-84
2022/09/15 11:39:55;;;;;;;2.40;1.30;;;;;;;20.56;48.61;99504.88;1788330;79;21038;-83
2022/09/15 11:42:35;;;;;;;6.00;0.80;;;;;;;20.53;48.53;99504.12;1768804;79;21039;-83
2022/09/15 11:45:02;;;;;;;3.65;0.80;;;;;;;20.38;48.46;99517.12;1791676;79;21493;-84
2022/09/15 11:47:40;;;;;;;5.22;1.12;;;;;;;20.38;48.46;99517.12;1793098;79;21483;-83
2022/09/15 11:50:23;;;;;;;1.80;0.85;;;;;;;20.19;48.69;99522.67;1780768;79;22389;-84
2022/09/15 11:53:17;;;;;;;2.58;1.20;;;;;;;20.02;48.92;99528.59;1792667;79;21580;-83
2022/09/15 11:56:26;;;;;;;1.82;1.05;;;;;;;20.02;48.92;99528.59;1791136;79;21555;-84
2022/09/15 11:59:25;;;;;;;2.83;0.82;;;;;;;20.18;49.15;99525.81;1792532;79;21545;-84
2022/09/15 12:02:09;;;;;;;3.47;0.78;;;;;;;20.45;49.62;99526.25;1764521;79;21039;-84
2022/09/15 12:04:42;;;;;;;1.62;0.90;;;;;;;20.56;49.48;99522.73;1754217;79;21832;-84
2022/09/15 12:07:22;;;;;;;5.85;1.00;;;;;;;20.52;49.62;99520.63;1788771;79;21050;-84
2022/09/15 12:09:49;;;;;;;3.33;0.60;;;;;;;20.38;49.53;99523.80;1793855;79;21458;-84
2022/09/15 12:12:18;;;;;;;1.90;0.60;;;;;;;20.13;49.64;99517.55;1792730;79;21050;-84
2022/09/15 12:14:47;;;;;;;1.57;0.80;;;;;;;19.87;49.33;99515.27;1787904;79;21003;-83
2022/09/15 12:17:51;;;;;;;1.30;0.57;;;;;;;19.59;49.60;99485.43;1778883;79;21663;-83
2022/09/15 12:20:30;;;;;;;1.35;0.60;;;;;;;19.67;49.89;99520.35;1792654;79;22073;-83
2022/09/15 12:23:10;;;;;;;1.90;0.82;;;;;;;19.55;49.44;99518.48;1771170;79;21111;-84
2022/09/15 12:26:14;;;;;;;4.47;1.20;;;;;;;19.35;49.43;99513.80;1781110;79;21086;-84
2022/09/15 12:28:53;;;;;;;1.75;1.15;;;;;;;19.26;49.65;99512.73;1785714;79;21073;-84
2022/09/15 12:31:36;;;;;;;1.95;0.95;;;;;;;19.12;49.69;99518.47;1786318;79;21693;-83
2022/09/15 12:34:34;;;;;;;3.97;1.30;;;;;;;18.94;49.66;99513.67;1776001;79;21102;-85
2022/09/15 12:37:13;;;;;;;4.08;1.27;;;;;;;18.73;49.78;99514.70;1793035;79;21050;-83
2022/09/15 12:39:44;;;;;;;2.80;1.00;;;;;;;18.50;49.96;99509.98;1793223;79;21062;-84
2022/09/15 12:42:23;;;;;;;2.67;1.02;;;;;;;18.41;49.93;99524.88;1776456;79;21058;-83
2022/09/15 12:45:22;;;;;;;2.60;1.15;;;;;;;18.33;50.05;99530.42;1798961;79;21881;-84
2022/09/15 12:48:08;;;;;;;2.85;1.12;;;;;;;18.28;50.03;99527.46;1783165;78;22219;-84
2022/09/15 12:50:41;;;;;;;3.05;1.70;;;;;;;18.23;50.03;99523.60;1766905;78;21482;-84
2022/09/15 12:53:31;;;;;;;3.22;1.05;;;;;;;18.26;50.03;99521.73;1793843;78;20968;-84
2022/09/15 12:56:10;;;;;;;7.03;2.77;;;;;;;18.29;50.20;99526.09;1739264;80;21057;-84
2022/09/15 12:58:45;;;;;;;2.65;0.90;;;;;;;18.26;50.14;99529.73;1770043;79;21720;-84